Time;durP1;ratioP1;P1;durP2;ratioP2;P2;SDS_P1;SDS_P2;PMS_P1;PMS_P2;Temp;Humidity;BMP_temperature;BMP_pressure;BME280_temperature;BME280_humidity;BME280_pressure;Samples;Min_cycle;Max_cycle;Signal;HPM_P1;HPM_P2
2021/12/21 00:00:11;;;;;;;38.92;24.02;;;;;;;;;;5051353;28;20502;-63
2021/12/21 00:02:38;;;;;;;36.03;23.88;;;;;;;;;;5067850;28;20098;-61
2021/12/21 00:05:04;;;;;;;35.80;23.58;;;;;;;;;;5051461;28;20025;-61
2021/12/21 00:07:30;;;;;;;34.40;23.75;;;;;;;;;;5069605;28;20388;-62
2021/12/21 00:09:55;;;;;;;35.10;23.27;;;;;;;;;;5069211;28;20499;-62
2021/12/21 00:12:24;;;;;;;34.45;24.23;;;;;;;;;;5069281;28;20498;-61
2021/12/21 00:17:47;;;;;;;38.53;25.35;;;;;;;;;;5069224;28;20033;-61
2021/12/21 00:20:23;;;;;;;34.53;23.38;;;;;;;;;;5050223;28;20044;-61
2021/12/21 00:25:18;;;;;;;35.33;24.15;;;;;;;;;;5069259;28;20468;-60
2021/12/21 00:27:46;;;;;;;30.50;23.15;;;;;;;;;;5051061;28;20404;-61
2021/12/21 00:30:12;;;;;;;34.08;24.25;;;;;;;;;;5050899;28;20040;-61
2021/12/21 00:32:39;;;;;;;33.50;23.25;;;;;;;;;;5050933;28;20071;-62
2021/12/21 00:35:05;;;;;;;33.70;22.60;;;;;;;;;;5068734;28;20028;-61
2021/12/21 00:37:31;;;;;;;32.35;21.00;;;;;;;;;;5050908;28;20062;-61
2021/12/21 00:39:56;;;;;;;26.27;19.02;;;;;;;;;;5068727;28;20028;-60
2021/12/21 00:42:22;;;;;;;30.95;19.88;;;;;;;;;;5050975;28;20033;-60
2021/12/21 00:44:47;;;;;;;32.08;20.33;;;;;;;;;;5068330;28;20073;-60
2021/12/21 00:47:15;;;;;;;24.55;19.02;;;;;;;;;;5068498;28;20028;-60
2021/12/21 00:49:46;;;;;;;30.05;19.00;;;;;;;;;;5050520;28;20055;-62
2021/12/21 00:52:12;;;;;;;27.92;19.42;;;;;;;;;;5034046;28;20032;-61
2021/12/21 00:54:37;;;;;;;28.95;19.98;;;;;;;;;;5050354;28;20028;-61
2021/12/21 00:57:04;;;;;;;29.08;20.30;;;;;;;;;;5068738;28;20098;-62
2021/12/21 00:59:33;;;;;;;30.75;20.25;;;;;;;;;;5034078;28;20029;-67
2021/12/21 01:01:58;;;;;;;30.58;21.17;;;;;;;;;;5068378;28;20430;-61
2021/12/21 01:04:30;;;;;;;33.10;21.15;;;;;;;;;;5068335;28;20037;-61
2021/12/21 01:12:24;;;;;;;30.60;18.90;;;;;;;;;;5068450;28;20043;-61
2021/12/21 01:21:03;;;;;;;31.48;18.63;;;;;;;;;;5034370;28;20044;-62
2021/12/21 01:26:06;;;;;;;26.73;17.17;;;;;;;;;;5070629;28;20506;-64
2021/12/21 01:36:08;;;;;;;26.65;16.75;;;;;;;;;;5053683;28;20047;-64
2021/12/21 01:38:48;;;;;;;25.48;16.70;;;;;;;;;;5053622;28;20064;-62
2021/12/21 01:41:29;;;;;;;23.27;16.65;;;;;;;;;;5053446;28;20024;-61
2021/12/21 01:49:49;;;;;;;22.60;17.77;;;;;;;;;;5072107;28;20032;-61
2021/12/21 01:52:16;;;;;;;26.52;17.65;;;;;;;;;;5036770;28;20123;-62
2021/12/21 01:54:41;;;;;;;25.02;17.58;;;;;;;;;;5069717;28;20032;-62
2021/12/21 01:57:07;;;;;;;28.27;16.95;;;;;;;;;;5053100;28;20085;-63
2021/12/21 01:59:36;;;;;;;25.40;17.08;;;;;;;;;;5070898;28;20098;-67
2021/12/21 02:02:02;;;;;;;24.80;17.10;;;;;;;;;;5053686;28;20025;-62
2021/12/21 02:04:28;;;;;;;22.92;16.38;;;;;;;;;;5053467;28;20028;-61
2021/12/21 02:06:54;;;;;;;24.80;18.55;;;;;;;;;;5071092;28;20047;-66
2021/12/21 02:09:20;;;;;;;23.35;17.02;;;;;;;;;;5071107;28;20475;-62
2021/12/21 02:11:49;;;;;;;25.25;17.65;;;;;;;;;;5053436;28;20025;-61
2021/12/21 02:14:15;;;;;;;27.70;17.75;;;;;;;;;;5051537;28;20041;-61
2021/12/21 02:16:53;;;;;;;24.45;17.60;;;;;;;;;;5069662;28;20027;-62
2021/12/21 02:19:26;;;;;;;26.17;18.02;;;;;;;;;;5053033;28;20044;-61
2021/12/21 02:21:55;;;;;;;22.58;17.25;;;;;;;;;;5070530;28;20024;-61
2021/12/21 02:24:26;;;;;;;27.75;18.40;;;;;;;;;;5053149;28;20032;-61
2021/12/21 02:27:07;;;;;;;26.27;17.83;;;;;;;;;;5070650;28;20432;-61
2021/12/21 02:29:35;;;;;;;26.55;19.52;;;;;;;;;;5053457;28;20040;-65
2021/12/21 02:32:00;;;;;;;25.70;18.45;;;;;;;;;;5070807;28;20020;-61
2021/12/21 02:34:26;;;;;;;27.48;18.33;;;;;;;;;;5051754;28;20082;-61
2021/12/21 02:36:53;;;;;;;28.15;18.95;;;;;;;;;;5052470;28;20839;-61
2021/12/21 02:39:19;;;;;;;30.40;19.80;;;;;;;;;;5052477;28;20033;-62
2021/12/21 02:41:45;;;;;;;24.85;18.65;;;;;;;;;;5052962;28;20123;-62
2021/12/21 02:44:12;;;;;;;28.23;18.92;;;;;;;;;;5052603;28;20151;-62
2021/12/21 02:46:39;;;;;;;29.05;19.70;;;;;;;;;;5052095;28;20040;-63
2021/12/21 02:49:07;;;;;;;31.17;21.02;;;;;;;;;;5068948;28;20507;-61
2021/12/21 02:51:33;;;;;;;31.38;20.48;;;;;;;;;;5052617;28;20036;-62
2021/12/21 02:53:58;;;;;;;28.17;19.65;;;;;;;;;;5070614;28;20162;-61
2021/12/21 02:56:23;;;;;;;27.30;19.23;;;;;;;;;;5052903;28;20068;-61
2021/12/21 02:58:49;;;;;;;30.27;20.55;;;;;;;;;;5070079;28;20116;-62
2021/12/21 03:01:15;;;;;;;28.88;20.00;;;;;;;;;;5070358;28;20052;-63
2021/12/21 03:03:40;;;;;;;32.03;18.88;;;;;;;;;;5070353;28;20040;-64
2021/12/21 03:06:12;;;;;;;28.48;19.48;;;;;;;;;;5070382;28;20113;-62
2021/12/21 03:08:44;;;;;;;29.27;19.20;;;;;;;;;;5052028;28;20035;-62
2021/12/21 03:11:22;;;;;;;26.67;18.35;;;;;;;;;;5035717;28;20125;-62
2021/12/21 03:13:54;;;;;;;28.05;18.95;;;;;;;;;;5052007;28;20492;-60
2021/12/21 03:16:20;;;;;;;32.70;19.00;;;;;;;;;;5052228;28;20046;-61
2021/12/21 03:18:45;;;;;;;24.48;17.17;;;;;;;;;;5070070;28;20028;-62
2021/12/21 03:21:11;;;;;;;28.33;19.25;;;;;;;;;;5070124;28;20055;-61
2021/12/21 03:23:37;;;;;;;27.25;18.50;;;;;;;;;;5069632;28;20033;-62
2021/12/21 03:26:03;;;;;;;26.95;18.52;;;;;;;;;;5035093;28;20438;-62
2021/12/21 03:28:29;;;;;;;25.40;17.63;;;;;;;;;;5052321;28;20036;-61
2021/12/21 03:30:54;;;;;;;28.23;18.30;;;;;;;;;;5051706;28;20040;-63
2021/12/21 03:33:19;;;;;;;32.90;18.75;;;;;;;;;;5051670;28;20400;-65
2021/12/21 03:35:45;;;;;;;24.08;17.13;;;;;;;;;;5069926;28;20028;-61
2021/12/21 03:38:10;;;;;;;26.35;17.85;;;;;;;;;;5069647;28;20041;-62
2021/12/21 03:40:36;;;;;;;26.40;18.95;;;;;;;;;;5069607;28;20026;-65
2021/12/21 03:43:01;;;;;;;26.55;18.13;;;;;;;;;;5070183;28;20923;-62
2021/12/21 03:45:30;;;;;;;26.30;18.40;;;;;;;;;;5069027;28;20389;-61
2021/12/21 03:47:56;;;;;;;28.20;18.70;;;;;;;;;;5068523;28;20119;-62
2021/12/21 03:50:22;;;;;;;28.13;18.73;;;;;;;;;;5069842;28;20111;-62
2021/12/21 03:52:47;;;;;;;26.85;18.02;;;;;;;;;;5069341;28;20521;-62
2021/12/21 03:55:13;;;;;;;32.83;20.27;;;;;;;;;;5069313;28;20052;-61
2021/12/21 03:57:38;;;;;;;27.88;19.05;;;;;;;;;;5069470;28;20396;-61
2021/12/21 04:00:05;;;;;;;29.70;19.55;;;;;;;;;;5069388;28;20461;-63
2021/12/21 04:02:30;;;;;;;30.52;19.20;;;;;;;;;;5068466;28;20048;-61
2021/12/21 04:04:58;;;;;;;32.40;19.33;;;;;;;;;;5069551;28;20110;-62
2021/12/21 04:07:23;;;;;;;26.60;18.65;;;;;;;;;;5051216;28;20157;-62
2021/12/21 04:09:49;;;;;;;30.75;19.67;;;;;;;;;;5069274;28;20115;-61
2021/12/21 04:12:15;;;;;;;29.40;19.30;;;;;;;;;;5051242;28;20040;-62
2021/12/21 04:14:41;;;;;;;27.65;19.08;;;;;;;;;;5069037;28;20032;-62
2021/12/21 04:17:06;;;;;;;27.90;19.52;;;;;;;;;;5051299;28;20396;-62
2021/12/21 04:19:32;;;;;;;26.98;19.45;;;;;;;;;;5069199;28;20028;-63
2021/12/21 04:21:57;;;;;;;29.15;20.13;;;;;;;;;;5068917;28;20042;-63
2021/12/21 04:24:22;;;;;;;27.42;19.33;;;;;;;;;;5051127;28;20071;-62
2021/12/21 04:26:48;;;;;;;30.30;19.98;;;;;;;;;;5069076;28;20828;-67
2021/12/21 04:29:14;;;;;;;27.98;18.92;;;;;;;;;;5068974;28;20064;-66
2021/12/21 04:31:39;;;;;;;29.13;18.65;;;;;;;;;;5050830;28;20036;-66
2021/12/21 04:34:05;;;;;;;24.60;17.70;;;;;;;;;;5068627;28;20036;-62
2021/12/21 04:36:30;;;;;;;25.73;17.63;;;;;;;;;;5068907;28;20067;-61
2021/12/21 04:38:58;;;;;;;26.10;17.10;;;;;;;;;;5068478;28;20060;-67
2021/12/21 04:41:27;;;;;;;26.55;17.92;;;;;;;;;;5050764;28;20093;-62
2021/12/21 04:43:53;;;;;;;27.95;18.02;;;;;;;;;;5050657;28;20165;-63
2021/12/21 04:46:19;;;;;;;25.75;17.23;;;;;;;;;;5067323;28;20123;-66
2021/12/21 04:48:45;;;;;;;26.02;18.00;;;;;;;;;;5068355;28;20119;-61
2021/12/21 04:51:10;;;;;;;27.00;17.42;;;;;;;;;;5068539;28;20024;-61
2021/12/21 04:53:36;;;;;;;22.20;16.10;;;;;;;;;;5068779;28;20432;-61
2021/12/21 04:56:02;;;;;;;26.15;17.55;;;;;;;;;;5049932;28;20396;-60
2021/12/21 04:58:28;;;;;;;26.02;16.63;;;;;;;;;;5068097;28;20120;-62
2021/12/21 05:00:53;;;;;;;20.45;16.30;;;;;;;;;;5068054;28;20103;-61
2021/12/21 05:03:19;;;;;;;24.83;16.83;;;;;;;;;;5068672;28;20041;-60
2021/12/21 05:05:44;;;;;;;27.15;16.05;;;;;;;;;;5068416;28;20036;-61
2021/12/21 05:08:21;;;;;;;27.20;17.42;;;;;;;;;;5068333;28;20218;-62
2021/12/21 05:13:13;;;;;;;26.30;16.30;;;;;;;;;;5068287;28;20032;-61
2021/12/21 05:15:38;;;;;;;29.75;18.25;;;;;;;;;;5050422;28;20067;-61
2021/12/21 05:18:04;;;;;;;24.92;16.58;;;;;;;;;;5068205;28;20067;-61
2021/12/21 05:20:29;;;;;;;31.00;18.48;;;;;;;;;;5068226;28;20111;-61
2021/12/21 05:22:55;;;;;;;36.17;18.75;;;;;;;;;;5068087;28;20119;-61
2021/12/21 05:25:20;;;;;;;31.17;17.52;;;;;;;;;;5068289;28;20032;-61
2021/12/21 05:27:45;;;;;;;33.10;18.48;;;;;;;;;;5068087;28;20041;-61
2021/12/21 05:30:12;;;;;;;27.77;17.80;;;;;;;;;;5049987;28;20024;-61
2021/12/21 05:32:37;;;;;;;34.95;18.95;;;;;;;;;;5049623;28;20125;-61
2021/12/21 05:35:03;;;;;;;29.40;19.05;;;;;;;;;;5068190;28;20067;-62
2021/12/21 05:37:28;;;;;;;38.60;19.58;;;;;;;;;;5068016;28;20111;-62
2021/12/21 05:42:19;;;;;;;37.63;20.48;;;;;;;;;;5067951;28;20040;-63
2021/12/21 05:44:45;;;;;;;38.22;20.10;;;;;;;;;;5068098;28;20086;-62
2021/12/21 05:47:10;;;;;;;29.10;18.42;;;;;;;;;;5067558;28;20376;-61
2021/12/21 05:49:36;;;;;;;31.75;17.92;;;;;;;;;;5067890;28;20047;-61
2021/12/21 05:52:01;;;;;;;32.72;17.83;;;;;;;;;;5068000;28;20060;-62
2021/12/21 05:54:27;;;;;;;35.03;18.15;;;;;;;;;;5068226;28;20519;-64
2021/12/21 05:56:52;;;;;;;30.45;18.33;;;;;;;;;;5067466;28;20523;-61
2021/12/21 05:59:18;;;;;;;31.88;17.48;;;;;;;;;;5049616;28;20035;-62
2021/12/21 06:01:43;;;;;;;30.15;17.08;;;;;;;;;;5049886;28;20479;-61
2021/12/21 06:04:09;;;;;;;29.33;16.88;;;;;;;;;;5067572;28;20036;-62
2021/12/21 06:06:35;;;;;;;28.95;19.20;;;;;;;;;;5067949;28;20870;-63
2021/12/21 06:09:05;;;;;;;29.38;17.38;;;;;;;;;;5035659;28;20255;-61
2021/12/21 06:11:34;;;;;;;27.02;18.08;;;;;;;;;;5035763;28;20025;-62
2021/12/21 06:22:43;;;;;;;32.10;18.65;;;;;;;;;;5053127;28;20024;-60
2021/12/21 06:27:23;;;;;;;29.27;16.48;;;;;;;;;;5070596;28;20025;-62
2021/12/21 06:29:49;;;;;;;27.02;18.73;;;;;;;;;;5071657;28;20369;-61
2021/12/21 06:32:16;;;;;;;34.22;18.73;;;;;;;;;;5052662;28;20387;-62
2021/12/21 06:34:42;;;;;;;27.08;16.85;;;;;;;;;;5052391;28;20071;-62
2021/12/21 06:37:07;;;;;;;22.58;16.50;;;;;;;;;;5070882;28;20060;-61
2021/12/21 06:39:33;;;;;;;27.85;16.40;;;;;;;;;;5070850;28;20040;-62
2021/12/21 06:41:59;;;;;;;34.85;17.55;;;;;;;;;;5070023;28;20044;-61
2021/12/21 06:44:24;;;;;;;39.40;17.10;;;;;;;;;;5070409;28;20036;-66
2021/12/21 06:51:09;;;;;;;31.58;16.38;;;;;;;;;;5069669;28;20487;-63
2021/12/21 06:52:37;;;;;;;28.58;16.20;;;;;;;;;;5068717;28;20040;-63
2021/12/21 06:55:03;;;;;;;26.95;15.45;;;;;;;;;;5069054;28;20054;-62
2021/12/21 06:57:28;;;;;;;35.13;16.20;;;;;;;;;;5068850;28;20483;-67
2021/12/21 06:59:54;;;;;;;25.77;17.15;;;;;;;;;;5067712;28;20036;-61
2021/12/21 07:02:19;;;;;;;30.85;15.00;;;;;;;;;;5051761;28;20043;-61
2021/12/21 07:04:45;;;;;;;30.83;15.88;;;;;;;;;;5070174;28;20408;-66
2021/12/21 07:07:11;;;;;;;26.00;15.27;;;;;;;;;;5070745;28;20353;-61
2021/12/21 07:09:42;;;;;;;27.63;15.85;;;;;;;;;;5070231;28;20048;-64
2021/12/21 07:18:06;;;;;;;27.90;16.60;;;;;;;;;;5052126;28;20593;-61
2021/12/21 07:18:23;;;;;;;85.63;19.33;;;;;;;;;;5069976;28;20045;-61
2021/12/21 07:20:49;;;;;;;31.23;16.33;;;;;;;;;;5051165;28;20502;-61
2021/12/21 07:23:14;;;;;;;26.58;16.67;;;;;;;;;;5070049;28;20032;-62
2021/12/21 07:25:40;;;;;;;36.15;19.15;;;;;;;;;;5069843;28;20032;-61
2021/12/21 07:28:05;;;;;;;29.83;16.63;;;;;;;;;;5070318;28;20061;-61
2021/12/21 07:30:30;;;;;;;34.65;15.20;;;;;;;;;;5070026;28;20032;-62
2021/12/21 07:32:56;;;;;;;33.35;15.20;;;;;;;;;;5059824;28;20435;-61
2021/12/21 07:35:21;;;;;;;32.20;15.88;;;;;;;;;;5066799;28;20482;-61
2021/12/21 07:37:47;;;;;;;28.13;16.55;;;;;;;;;;5049673;28;20037;-67
2021/12/21 07:40:13;;;;;;;31.17;16.63;;;;;;;;;;5032174;28;20111;-62
2021/12/21 07:42:38;;;;;;;39.45;17.10;;;;;;;;;;5049437;28;20029;-62
2021/12/21 07:45:04;;;;;;;26.73;15.73;;;;;;;;;;5049780;28;20086;-66
2021/12/21 07:47:29;;;;;;;26.40;16.98;;;;;;;;;;5049922;28;20064;-66
2021/12/21 07:49:54;;;;;;;27.05;15.55;;;;;;;;;;5049800;28;20087;-63
2021/12/21 07:52:20;;;;;;;26.35;15.23;;;;;;;;;;5048052;28;20048;-62
2021/12/21 07:54:45;;;;;;;35.28;17.33;;;;;;;;;;5049492;28;20435;-61
2021/12/21 07:57:11;;;;;;;32.72;17.77;;;;;;;;;;5049457;28;20030;-61
2021/12/21 07:59:37;;;;;;;36.05;20.05;;;;;;;;;;5049606;28;20020;-61
2021/12/21 08:02:03;;;;;;;45.10;18.77;;;;;;;;;;5031626;28;20052;-61
2021/12/21 08:04:28;;;;;;;29.58;16.98;;;;;;;;;;5049383;28;20033;-60
2021/12/21 08:06:56;;;;;;;36.08;17.88;;;;;;;;;;5031410;28;20072;-62
2021/12/21 08:09:25;;;;;;;31.42;17.27;;;;;;;;;;5031555;28;20037;-61
2021/12/21 08:14:34;;;;;;;33.95;16.85;;;;;;;;;;5047932;28;20045;-61
2021/12/21 08:17:00;;;;;;;32.72;17.70;;;;;;;;;;5049388;28;20060;-62
2021/12/21 08:19:25;;;;;;;41.42;19.58;;;;;;;;;;5049067;28;20040;-61
2021/12/21 08:21:51;;;;;;;33.67;20.40;;;;;;;;;;5049049;28;20028;-62
2021/12/21 08:24:16;;;;;;;28.25;18.05;;;;;;;;;;5048771;28;20037;-62
2021/12/21 08:26:41;;;;;;;28.17;17.08;;;;;;;;;;5057079;28;20059;-62
2021/12/21 08:29:07;;;;;;;25.90;16.70;;;;;;;;;;5064925;28;20116;-63
2021/12/21 08:31:33;;;;;;;32.40;17.65;;;;;;;;;;5065886;28;20033;-62
2021/12/21 08:33:59;;;;;;;26.25;17.15;;;;;;;;;;5066217;28;20047;-62
2021/12/21 08:36:25;;;;;;;26.63;17.00;;;;;;;;;;5065873;28;20032;-61
2021/12/21 08:38:50;;;;;;;30.88;17.75;;;;;;;;;;5066745;28;20037;-62
2021/12/21 08:41:16;;;;;;;38.30;18.92;;;;;;;;;;5066751;28;20483;-61
2021/12/21 08:43:41;;;;;;;32.28;18.45;;;;;;;;;;5066878;28;20040;-62
2021/12/21 08:46:08;;;;;;;38.13;17.05;;;;;;;;;;5067118;28;20068;-62
2021/12/21 08:48:34;;;;;;;30.80;16.98;;;;;;;;;;5066870;28;20090;-62
2021/12/21 08:51:00;;;;;;;33.10;15.13;;;;;;;;;;5066701;28;20064;-62
2021/12/21 08:53:26;;;;;;;28.23;14.60;;;;;;;;;;5066470;28;20484;-61
2021/12/21 08:55:52;;;;;;;22.13;14.77;;;;;;;;;;5066960;28;20032;-62
2021/12/21 08:58:18;;;;;;;30.55;15.75;;;;;;;;;;5066615;28;20115;-62
2021/12/21 09:00:43;;;;;;;25.85;15.07;;;;;;;;;;5066179;28;20540;-62
2021/12/21 09:03:09;;;;;;;28.63;14.98;;;;;;;;;;5066559;28;20066;-62
2021/12/21 09:05:34;;;;;;;26.33;16.02;;;;;;;;;;5048701;28;20464;-61
2021/12/21 09:08:00;;;;;;;26.13;15.25;;;;;;;;;;5067277;28;20066;-62
2021/12/21 09:10:27;;;;;;;27.83;14.90;;;;;;;;;;5068432;28;20031;-62
2021/12/21 09:12:52;;;;;;;30.23;17.02;;;;;;;;;;5068092;28;20538;-61
2021/12/21 09:15:18;;;;;;;23.40;16.20;;;;;;;;;;5068563;28;20029;-63
2021/12/21 09:17:44;;;;;;;25.15;16.50;;;;;;;;;;5068244;28;20033;-62
2021/12/21 09:20:12;;;;;;;25.70;15.75;;;;;;;;;;5068524;28;20360;-62
2021/12/21 09:22:38;;;;;;;23.83;16.55;;;;;;;;;;5068117;28;20051;-62
2021/12/21 09:25:03;;;;;;;22.88;15.85;;;;;;;;;;5068204;28;20037;-63
2021/12/21 09:27:29;;;;;;;24.40;15.65;;;;;;;;;;5068540;28;20043;-63
2021/12/21 09:29:54;;;;;;;23.88;14.77;;;;;;;;;;5068413;28;20021;-63
2021/12/21 09:32:20;;;;;;;21.65;13.75;;;;;;;;;;5068133;28;20392;-62
2021/12/21 09:34:46;;;;;;;20.67;14.10;;;;;;;;;;5068147;28;20394;-62
2021/12/21 09:37:19;;;;;;;24.65;14.23;;;;;;;;;;5068317;28;20036;-62
2021/12/21 09:39:47;;;;;;;25.58;14.75;;;;;;;;;;5068117;28;20044;-68
2021/12/21 09:42:14;;;;;;;22.40;15.52;;;;;;;;;;5068083;28;20236;-61
2021/12/21 09:44:40;;;;;;;24.83;16.25;;;;;;;;;;5071372;28;20040;-62
2021/12/21 09:47:08;;;;;;;29.33;18.63;;;;;;;;;;5071414;28;20476;-61
2021/12/21 09:49:33;;;;;;;28.35;18.15;;;;;;;;;;5071703;28;20492;-62
2021/12/21 09:51:59;;;;;;;32.33;18.92;;;;;;;;;;5053605;28;20071;-62
2021/12/21 09:54:24;;;;;;;28.33;18.17;;;;;;;;;;5071659;28;20040;-63
2021/12/21 09:56:50;;;;;;;26.10;16.02;;;;;;;;;;5071414;28;20045;-62
2021/12/21 09:59:15;;;;;;;35.80;17.90;;;;;;;;;;5071593;28;20056;-62
2021/12/21 10:01:41;;;;;;;26.25;16.45;;;;;;;;;;5070937;28;20035;-62
2021/12/21 10:04:06;;;;;;;28.77;17.10;;;;;;;;;;5071541;28;20151;-63
2021/12/21 10:06:41;;;;;;;28.48;17.33;;;;;;;;;;5071467;28;20116;-62
2021/12/21 10:09:07;;;;;;;21.75;14.75;;;;;;;;;;5071611;28;20044;-63
2021/12/21 10:11:41;;;;;;;19.58;12.93;;;;;;;;;;5071415;28;20480;-63
2021/12/21 10:14:07;;;;;;;17.70;12.65;;;;;;;;;;5071296;28;20105;-61
2021/12/21 10:16:32;;;;;;;14.07;10.23;;;;;;;;;;5053232;28;20048;-63
2021/12/21 10:18:57;;;;;;;15.63;10.95;;;;;;;;;;5071076;28;20480;-63
2021/12/21 10:21:23;;;;;;;15.85;10.65;;;;;;;;;;5070917;28;20036;-63
2021/12/21 10:23:51;;;;;;;15.45;9.18;;;;;;;;;;5071099;28;20032;-63
2021/12/21 10:26:21;;;;;;;12.10;7.35;;;;;;;;;;5071191;28;20118;-63
2021/12/21 10:28:48;;;;;;;11.63;6.07;;;;;;;;;;5071028;28;20063;-62
2021/12/21 10:31:14;;;;;;;9.43;6.70;;;;;;;;;;5070961;28;20043;-62
2021/12/21 10:33:43;;;;;;;9.43;6.78;;;;;;;;;;5070992;28;20487;-62
2021/12/21 10:36:09;;;;;;;10.93;6.37;;;;;;;;;;5070798;28;20365;-61
2021/12/21 10:38:36;;;;;;;10.10;6.20;;;;;;;;;;5069603;28;20044;-61
2021/12/21 10:41:06;;;;;;;10.73;6.22;;;;;;;;;;5070771;28;20115;-61
2021/12/21 10:43:32;;;;;;;8.02;5.60;;;;;;;;;;5070700;28;20051;-61
2021/12/21 10:45:57;;;;;;;9.95;6.90;;;;;;;;;;5070790;28;20460;-62
2021/12/21 10:48:23;;;;;;;9.43;6.95;;;;;;;;;;5070395;28;20063;-62
2021/12/21 10:50:49;;;;;;;10.52;6.60;;;;;;;;;;5070602;28;20128;-61
2021/12/21 10:53:19;;;;;;;10.50;6.88;;;;;;;;;;5070622;28;20037;-62
2021/12/21 10:55:45;;;;;;;10.50;6.85;;;;;;;;;;5069366;28;20076;-61
2021/12/21 10:58:13;;;;;;;11.43;6.47;;;;;;;;;;5070732;28;20056;-62
2021/12/21 11:00:44;;;;;;;10.98;6.80;;;;;;;;;;5070526;28;20036;-62
2021/12/21 11:03:10;;;;;;;14.27;7.00;;;;;;;;;;5070751;28;20503;-66
2021/12/21 11:05:35;;;;;;;11.15;6.82;;;;;;;;;;5035782;28;20036;-64
2021/12/21 11:08:14;;;;;;;14.23;7.53;;;;;;;;;;5070814;28;20127;-64
2021/12/21 11:10:41;;;;;;;10.90;8.10;;;;;;;;;;5052242;28;20037;-63
2021/12/21 11:13:15;;;;;;;11.65;8.10;;;;;;;;;;5068913;28;20048;-63
2021/12/21 11:15:55;;;;;;;13.20;7.28;;;;;;;;;;5035889;28;20085;-63
2021/12/21 11:18:22;;;;;;;14.73;8.15;;;;;;;;;;5069330;28;20170;-63
2021/12/21 11:20:49;;;;;;;14.98;7.95;;;;;;;;;;5069784;28;20032;-63
2021/12/21 11:23:15;;;;;;;23.83;8.35;;;;;;;;;;5070131;28;20036;-63
2021/12/21 11:25:42;;;;;;;18.33;8.25;;;;;;;;;;5069850;28;20025;-63
2021/12/21 11:28:07;;;;;;;12.95;8.63;;;;;;;;;;5051488;28;20039;-63
2021/12/21 11:30:34;;;;;;;12.40;8.30;;;;;;;;;;5052440;28;20415;-64
2021/12/21 11:33:01;;;;;;;12.68;8.15;;;;;;;;;;5035164;28;20039;-65
2021/12/21 11:37:59;;;;;;;15.93;8.90;;;;;;;;;;5069531;28;20028;-65
2021/12/21 11:40:29;;;;;;;16.85;8.27;;;;;;;;;;5051887;28;20029;-64
2021/12/21 11:42:55;;;;;;;17.23;8.18;;;;;;;;;;5069621;28;20817;-63
2021/12/21 11:45:23;;;;;;;12.10;7.70;;;;;;;;;;5051705;28;20040;-63
2021/12/21 11:47:57;;;;;;;11.57;8.60;;;;;;;;;;5051573;28;20040;-62
2021/12/21 11:50:23;;;;;;;14.05;8.90;;;;;;;;;;5069573;28;20043;-63
2021/12/21 11:52:52;;;;;;;12.90;7.90;;;;;;;;;;5051351;28;20036;-64
2021/12/21 11:55:19;;;;;;;10.55;7.18;;;;;;;;;;5051328;28;20072;-63
2021/12/21 11:57:55;;;;;;;11.52;6.97;;;;;;;;;;5069226;28;20495;-63
2021/12/21 12:00:28;;;;;;;13.77;7.90;;;;;;;;;;5051506;28;20072;-67
2021/12/21 12:02:55;;;;;;;10.27;7.25;;;;;;;;;;5051293;28;20484;-63
2021/12/21 12:05:25;;;;;;;14.82;8.90;;;;;;;;;;5069128;28;20029;-62
2021/12/21 12:08:09;;;;;;;14.30;8.77;;;;;;;;;;5051219;28;20091;-63
2021/12/21 12:10:37;;;;;;;14.20;9.40;;;;;;;;;;5069401;28;20036;-64
2021/12/21 12:13:26;;;;;;;12.32;8.45;;;;;;;;;;5051012;28;20051;-64
2021/12/21 12:15:53;;;;;;;13.95;9.05;;;;;;;;;;5058557;28;20044;-64
2021/12/21 12:18:24;;;;;;;13.52;9.02;;;;;;;;;;5068893;28;20037;-64
2021/12/21 12:20:49;;;;;;;17.23;9.43;;;;;;;;;;5068982;28;20388;-63
2021/12/21 12:23:17;;;;;;;19.73;10.32;;;;;;;;;;5069128;28;20021;-63
2021/12/21 12:25:53;;;;;;;19.27;10.48;;;;;;;;;;5069171;28;20097;-64
2021/12/21 12:28:27;;;;;;;21.65;9.93;;;;;;;;;;5069084;28;20043;-64
2021/12/21 12:30:53;;;;;;;15.55;10.75;;;;;;;;;;5068555;28;20056;-63
2021/12/21 12:33:19;;;;;;;16.02;10.35;;;;;;;;;;5068323;28;20463;-64
2021/12/21 12:35:44;;;;;;;18.05;10.57;;;;;;;;;;5068979;28;20127;-63
2021/12/21 12:38:12;;;;;;;17.42;10.00;;;;;;;;;;5068883;28;20036;-63
2021/12/21 12:40:42;;;;;;;16.90;10.73;;;;;;;;;;5068149;28;20040;-63
2021/12/21 12:43:08;;;;;;;19.45;9.63;;;;;;;;;;5068797;28;20666;-64
2021/12/21 12:45:35;;;;;;;16.30;10.02;;;;;;;;;;5068765;28;20028;-63
2021/12/21 12:48:01;;;;;;;17.70;10.02;;;;;;;;;;5068522;28;20025;-63
2021/12/21 12:50:32;;;;;;;15.93;9.93;;;;;;;;;;5068760;28;20036;-63
2021/12/21 12:53:02;;;;;;;14.82;9.75;;;;;;;;;;5068382;28;20040;-63
2021/12/21 12:55:50;;;;;;;15.02;10.32;;;;;;;;;;5068717;28;20067;-63
2021/12/21 12:58:20;;;;;;;16.67;9.50;;;;;;;;;;5068621;28;20115;-63
2021/12/21 13:00:53;;;;;;;18.60;9.80;;;;;;;;;;5068347;28;20372;-63
2021/12/21 13:03:18;;;;;;;13.25;9.05;;;;;;;;;;5050492;28;20897;-63
2021/12/21 13:05:52;;;;;;;15.70;8.73;;;;;;;;;;5068517;28;20075;-63
2021/12/21 13:08:19;;;;;;;13.63;8.32;;;;;;;;;;5067252;28;20388;-63
2021/12/21 13:10:47;;;;;;;12.95;8.25;;;;;;;;;;5068247;28;20040;-63
2021/12/21 13:13:12;;;;;;;15.43;9.90;;;;;;;;;;5068590;28;20045;-63
2021/12/21 13:15:41;;;;;;;14.48;9.63;;;;;;;;;;5050542;28;20036;-63
2021/12/21 13:18:08;;;;;;;17.35;10.05;;;;;;;;;;5049803;28;20120;-63
2021/12/21 13:20:34;;;;;;;17.75;12.00;;;;;;;;;;5068260;28;20040;-63
2021/12/21 13:23:14;;;;;;;19.13;11.88;;;;;;;;;;5068336;28;20127;-63
2021/12/21 13:25:39;;;;;;;;;;;;;;;;;;5068080;28;20062;-63
2021/12/21 13:28:09;;;;;;;19.40;12.07;;;;;;;;;;5068048;28;19913;-63
2021/12/21 13:30:34;;;;;;;18.02;11.43;;;;;;;;;;5064852;28;20320;-63
2021/12/21 13:33:00;;;;;;;14.98;9.25;;;;;;;;;;5067062;28;20028;-63
2021/12/21 13:35:28;;;;;;;16.23;9.02;;;;;;;;;;5066788;28;20093;-63
2021/12/21 13:37:53;;;;;;;14.32;9.00;;;;;;;;;;5067148;28;20041;-64
2021/12/21 13:40:19;;;;;;;12.52;7.53;;;;;;;;;;5066054;28;20493;-64
2021/12/21 13:42:44;;;;;;;12.45;7.93;;;;;;;;;;5064677;28;20040;-64
2021/12/21 13:45:09;;;;;;;14.85;7.78;;;;;;;;;;5066058;28;20117;-64
2021/12/21 13:47:37;;;;;;;18.75;8.48;;;;;;;;;;5065964;28;20036;-64
2021/12/21 13:50:05;;;;;;;14.75;9.45;;;;;;;;;;5064149;28;20147;-64
2021/12/21 13:52:32;;;;;;;14.65;8.88;;;;;;;;;;5063953;28;20029;-63
2021/12/21 13:54:58;;;;;;;15.05;8.60;;;;;;;;;;5063420;28;20028;-63
2021/12/21 13:57:25;;;;;;;12.93;8.43;;;;;;;;;;5063800;28;20089;-64
2021/12/21 13:59:51;;;;;;;11.05;8.02;;;;;;;;;;5063568;28;20041;-64
2021/12/21 14:02:31;;;;;;;15.15;9.45;;;;;;;;;;5063282;28;20104;-64
2021/12/21 14:05:02;;;;;;;17.08;10.95;;;;;;;;;;5063321;28;20041;-64
2021/12/21 14:07:30;;;;;;;15.15;10.23;;;;;;;;;;5066090;28;20059;-64
2021/12/21 14:10:11;;;;;;;13.25;9.57;;;;;;;;;;5065744;28;20119;-64
2021/12/21 14:12:36;;;;;;;16.25;10.18;;;;;;;;;;5063603;28;20044;-63
2021/12/21 14:15:02;;;;;;;15.98;10.75;;;;;;;;;;5047199;28;20037;-63
2021/12/21 14:17:28;;;;;;;17.85;11.88;;;;;;;;;;5047983;28;20032;-63
2021/12/21 14:19:55;;;;;;;20.52;14.45;;;;;;;;;;5065683;28;20033;-63
2021/12/21 14:22:21;;;;;;;24.30;16.13;;;;;;;;;;5065892;28;20069;-63
2021/12/21 14:24:48;;;;;;;24.73;15.45;;;;;;;;;;5065892;28;20037;-64
2021/12/21 14:27:14;;;;;;;21.95;14.50;;;;;;;;;;5067485;28;20067;-63
2021/12/21 14:29:42;;;;;;;23.35;14.20;;;;;;;;;;5069478;28;20079;-63
2021/12/21 14:34:37;;;;;;;23.45;18.00;;;;;;;;;;5070350;28;20564;-63
2021/12/21 14:37:13;;;;;;;25.63;16.10;;;;;;;;;;5069292;28;20119;-63
2021/12/21 14:39:40;;;;;;;21.88;14.30;;;;;;;;;;5071019;28;20131;-64
2021/12/21 14:42:08;;;;;;;30.15;15.55;;;;;;;;;;5070678;28;20067;-63
2021/12/21 14:44:42;;;;;;;25.75;13.75;;;;;;;;;;5070666;28;20132;-63
2021/12/21 14:47:09;;;;;;;20.35;12.85;;;;;;;;;;5071062;28;20024;-63
2021/12/21 14:49:44;;;;;;;24.52;12.25;;;;;;;;;;5070529;28;20028;-64
2021/12/21 14:52:18;;;;;;;24.38;13.25;;;;;;;;;;5070714;28;20071;-63
2021/12/21 14:54:51;;;;;;;21.70;15.50;;;;;;;;;;5070274;28;20500;-63
2021/12/21 14:57:17;;;;;;;24.05;15.25;;;;;;;;;;5070402;28;20384;-63
2021/12/21 14:59:47;;;;;;;25.42;15.25;;;;;;;;;;5070602;28;20028;-63
2021/12/21 15:02:24;;;;;;;25.35;14.20;;;;;;;;;;5070635;28;20239;-63
2021/12/21 15:04:53;;;;;;;20.48;13.45;;;;;;;;;;5069183;28;20046;-64
2021/12/21 15:07:21;;;;;;;25.15;14.02;;;;;;;;;;5069371;28;20165;-65
2021/12/21 15:09:48;;;;;;;19.23;13.93;;;;;;;;;;5051979;28;20373;-64
2021/12/21 15:12:14;;;;;;;20.92;15.32;;;;;;;;;;5069303;28;20040;-65
2021/12/21 15:14:39;;;;;;;24.85;13.15;;;;;;;;;;5069411;28;20039;-63
2021/12/21 15:17:04;;;;;;;24.98;16.17;;;;;;;;;;5069536;28;20377;-63
2021/12/21 15:19:30;;;;;;;24.45;14.90;;;;;;;;;;5068676;28;20233;-63
2021/12/21 15:21:56;;;;;;;27.13;15.30;;;;;;;;;;5067777;28;20131;-63
2021/12/21 15:24:21;;;;;;;27.70;16.40;;;;;;;;;;5069193;28;20070;-63